Aktualna pogoda na lotniskach (dane METAR)

 

EPGD - Gdansk/Rebiechow, Poland
Distance from station: ENE 44km
Updated: Tue, 20-Feb-2018 02:30 CET
Overcast
Overcast
 Wind from ESE
Wiatr: ESE 4 km/h
Temperatura: -2°C
Punkt Rosy: -3°C
Wilgotność: 93%
Ciśnienie: 1023 hPa
Zachmurzenie: Overcast
Widzialność: 9 km
Szczegóły zachm.: Overcast 1433 m
2018/02/20 01:30 EPGD 200130Z 11002KT 9000 OVC047 M02/M03 Q1023
EPSC - Szczecin/Golenio, Poland
Distance from station: WSW 205km
Updated: Tue, 20-Feb-2018 02:30 CET
Overcast
Overcast
 Wind from ENE
Wiatr: ENE 9 km/h
Temperatura: 0°C
Indeks Wychł.: -3°C
Punkt Rosy: -4°C
Wilgotność: 75%
Ciśnienie: 1021 hPa
Zachmurzenie: Overcast
Widzialność: 10 km
Szczegóły zachm.: Overcast 1189 m
2018/02/20 01:30 EPSC 200130Z 07005KT 9999 OVC039 M00/M04 Q1021
 
EPPO - Poznan/Lawica, Poland
Distance from station: SSW 210km
Updated: Tue, 20-Feb-2018 02:30 CET
Clear
Clear
 Wind from E
Wiatr: E 11 km/h
Temperatura: -3°C
Indeks Wychł.: -7°C
Punkt Rosy: -6°C
Wilgotność: 80%
Ciśnienie: 1021 hPa
Ogólnie: Clear
Widzialność: greater than 10 km
2018/02/20 01:30 EPPO 200130Z 09006KT CAVOK M03/M06 Q1021 R10/19//95
EPLL - Lodz/Lublinek, Poland
Distance from station: SSE 296km
Updated: Tue, 20-Feb-2018 02:30 CET
Clear
Clear
 Wind from ENE
Wiatr: ENE 13 km/h
Temperatura: -4°C
Indeks Wychł.: -9°C
Punkt Rosy: -8°C
Wilgotność: 74%
Ciśnienie: 1021 hPa
Ogólnie: Clear
Widzialność: greater than 10 km
2018/02/20 01:30 EPLL 200130Z 07007KT CAVOK M04/M08 Q1021
 
EPWA - Warsaw/Okecie, Poland
Distance from station: SE 307km
Updated: Tue, 20-Feb-2018 02:30 CET
Clear
Clear
 Wind from ESE
Wiatr: ESE 7 km/h
Temperatura: -3°C
Indeks Wychł.: -6°C
Punkt Rosy: -6°C
Wilgotność: 80%
Ciśnienie: 1023 hPa
Ogólnie: Clear
Widzialność: greater than 10 km
2018/02/20 01:30 EPWA 200130Z 11004KT CAVOK M03/M06 Q1023 NOSIG
EPWR - Wroclaw/Strachow, Poland
Distance from station: S 352km
Updated: Tue, 20-Feb-2018 02:30 CET
Clear
Clear
 Wind from ESE
Wiatr: ESE 13 km/h
Temperatura: -4°C
Indeks Wychł.: -9°C
Punkt Rosy: -6°C
Wilgotność: 86%
Ciśnienie: 1019 hPa
Ogólnie: Clear
Widzialność: greater than 10 km
2018/02/20 01:30 EPWR 200130Z 11007KT CAVOK M04/M06 Q1019

Metar display script from Saratoga-Weather.org